Time;durP1;ratioP1;P1;durP2;ratioP2;P2;SDS_P1;SDS_P2;PMS_P1;PMS_P2;Temp;Humidity;BMP_temperature;BMP_pressure;BME280_temperature;BME280_humidity;BME280_pressure;Samples;Min_cycle;Max_cycle;Signal;HPM_P1;HPM_P2
2022/10/13 00:02:05;;;;;;;34.00;16.80;;;;;;;7.81;61.45;99937.95;221416;1250;139384;-68
2022/10/13 00:07:11;;;;;;;30.80;17.00;;;;;;;7.81;62.04;99936.35;221390;1248;142483;-67
2022/10/13 00:12:14;;;;;;;30.30;16.80;;;;;;;7.82;62.02;99930.48;221385;1246;139013;-68
2022/10/13 00:17:20;;;;;;;27.30;16.40;;;;;;;7.84;62.06;99933.42;221544;1246;139063;-66
2022/10/13 00:22:23;;;;;;;31.60;16.30;;;;;;;7.82;62.10;99929.23;221379;1253;139075;-65
2022/10/13 00:27:27;;;;;;;27.10;15.60;;;;;;;7.81;62.27;99927.70;221487;1253;140728;-67
2022/10/13 00:32:30;;;;;;;29.60;16.80;;;;;;;7.85;62.18;99927.02;221326;1251;140446;-66
2022/10/13 00:37:35;;;;;;;28.20;15.30;;;;;;;7.95;62.30;99924.20;221474;1247;139569;-66
2022/10/13 00:42:40;;;;;;;29.00;16.00;;;;;;;8.00;62.57;99925.42;221451;1247;139500;-66
2022/10/13 00:47:47;;;;;;;30.60;16.50;;;;;;;8.01;62.53;99923.44;221454;1247;139316;-67
2022/10/13 00:52:53;;;;;;;29.80;16.60;;;;;;;7.96;62.22;99919.55;221384;1250;139089;-66
2022/10/13 00:58:01;;;;;;;29.40;16.10;;;;;;;7.93;62.25;99916.48;221514;1246;139881;-67
2022/10/13 01:03:10;;;;;;;28.30;16.30;;;;;;;7.90;62.34;99917.84;221401;1250;139282;-67
2022/10/13 01:08:17;;;;;;;28.40;15.90;;;;;;;7.84;62.24;99914.89;221366;1253;140410;-67
2022/10/13 01:13:27;;;;;;;26.20;15.40;;;;;;;7.77;62.08;99909.84;221462;1249;139838;-69
2022/10/13 01:19:05;;;;;;;33.50;16.20;;;;;;;7.70;62.33;99905.66;221333;1246;140133;-65
2022/10/13 01:24:50;;;;;;;29.20;15.60;;;;;;;7.63;62.26;99896.91;221337;1246;139571;-65
2022/10/13 01:30:02;;;;;;;25.70;15.10;;;;;;;7.57;62.16;99891.31;221069;1247;139070;-67
2022/10/13 01:35:19;;;;;;;29.20;15.10;;;;;;;7.49;62.19;99890.38;221362;1247;140097;-67
2022/10/13 01:40:31;;;;;;;26.20;14.70;;;;;;;7.46;62.22;99888.52;221505;1246;139674;-67
2022/10/13 01:45:41;;;;;;;30.20;15.50;;;;;;;7.46;62.04;99885.34;221417;1247;141162;-72
2022/10/13 01:50:50;;;;;;;26.60;15.20;;;;;;;7.42;62.07;99886.55;221445;1246;140496;-70
2022/10/13 01:55:57;;;;;;;32.80;15.70;;;;;;;7.38;62.13;99882.82;221372;1246;139212;-67
2022/10/13 02:01:40;;;;;;;35.20;15.50;;;;;;;7.30;62.00;99881.14;221385;1246;222977;-68
2022/10/13 02:07:06;;;;;;;28.60;15.00;;;;;;;7.21;62.01;99875.10;221344;1244;139716;-71
2022/10/13 02:12:19;;;;;;;32.00;15.10;;;;;;;7.14;62.48;99879.77;221430;1249;139115;-67
2022/10/13 02:17:27;;;;;;;28.60;15.40;;;;;;;7.14;62.39;99876.42;221236;1247;140689;-67
2022/10/13 02:22:39;;;;;;;27.20;15.50;;;;;;;7.11;62.38;99876.87;221543;1247;140666;-65
2022/10/13 02:27:43;;;;;;;27.00;15.80;;;;;;;7.06;62.38;99875.45;221384;1246;140132;-68
2022/10/13 02:32:47;;;;;;;;;;;;;;;7.03;62.37;99874.86;221581;1247;141380;-68
2022/10/13 02:37:53;;;;;;;34.60;16.40;;;;;;;6.98;62.55;99876.26;221527;1247;126441;-69
2022/10/13 02:42:57;;;;;;;26.10;14.20;;;;;;;7.00;62.65;99867.55;221445;1246;140014;-68
2022/10/13 02:48:02;;;;;;;37.20;17.10;;;;;;;7.07;62.62;99867.64;221283;1246;141394;-66
2022/10/13 02:53:05;;;;;;;24.20;15.40;;;;;;;7.09;62.71;99861.21;221463;1249;138916;-65
2022/10/13 02:58:09;;;;;;;150.40;146.60;;;;;;;7.07;62.77;99860.23;221474;1247;141469;-67
2022/10/13 03:03:14;;;;;;;36.80;20.80;;;;;;;7.06;62.68;99856.90;221383;1247;140756;-72
2022/10/13 03:08:19;;;;;;;47.10;28.80;;;;;;;7.04;62.47;99858.41;221149;1247;139317;-70
2022/10/13 03:13:23;;;;;;;29.30;10.50;;;;;;;7.02;62.34;99864.11;221328;1246;140331;-69
2022/10/13 03:18:26;;;;;;;30.40;15.50;;;;;;;6.90;62.06;99860.65;221305;1249;141210;-68
2022/10/13 03:23:32;;;;;;;93.60;61.70;;;;;;;6.81;62.18;99863.58;221442;1247;140012;-68
2022/10/13 03:28:36;;;;;;;31.90;18.50;;;;;;;6.78;62.52;99861.77;221567;1246;141155;-65
2022/10/13 03:33:40;;;;;;;26.40;16.30;;;;;;;6.73;62.21;99856.64;221297;1240;140866;-67
2022/10/13 03:38:44;;;;;;;34.80;17.10;;;;;;;6.64;62.46;99851.64;221461;1246;141837;-67
2022/10/13 03:43:49;;;;;;;30.20;16.70;;;;;;;6.55;62.34;99849.09;221382;1247;138939;-66
2022/10/13 03:48:55;;;;;;;30.70;17.30;;;;;;;6.53;62.69;99844.08;221505;1246;140082;-67
2022/10/13 03:53:59;;;;;;;28.90;17.40;;;;;;;6.56;63.03;99844.16;221467;1246;141681;-67
2022/10/13 03:59:03;;;;;;;164.20;97.10;;;;;;;6.64;62.99;99838.08;221340;1249;141420;-67
2022/10/13 04:04:10;;;;;;;34.20;18.60;;;;;;;6.76;63.35;99841.92;221536;1240;142060;-66
2022/10/13 04:09:16;;;;;;;30.70;18.10;;;;;;;6.79;63.19;99845.67;221370;1246;141352;-65
2022/10/13 04:14:21;;;;;;;30.20;17.00;;;;;;;6.81;63.45;99846.14;221293;1250;140772;-68
2022/10/13 04:19:26;;;;;;;33.30;17.20;;;;;;;6.79;63.10;99846.92;221163;1247;140435;-66
2022/10/13 04:24:30;;;;;;;29.70;17.60;;;;;;;6.73;63.32;99848.15;221494;1246;141158;-68
2022/10/13 04:29:34;;;;;;;28.50;16.80;;;;;;;6.69;63.23;99847.42;221396;1246;141194;-63
2022/10/13 04:34:37;;;;;;;35.00;19.00;;;;;;;6.63;63.07;99843.21;221530;1247;141642;-66
2022/10/13 04:39:41;;;;;;;40.10;18.40;;;;;;;6.59;63.26;99844.39;221393;1249;140965;-66
2022/10/13 04:44:45;;;;;;;;;;;;;;;6.54;63.13;99840.66;221274;1246;140417;-66
2022/10/13 04:49:50;;;;;;;24.10;13.80;;;;;;;6.50;63.41;99838.53;221453;1246;126996;-65
2022/10/13 04:54:53;;;;;;;37.10;18.20;;;;;;;6.52;63.27;99835.83;221353;1247;140715;-70
2022/10/13 04:59:57;;;;;;;37.10;18.30;;;;;;;6.56;63.43;99836.20;221326;1246;141988;-64
2022/10/13 05:05:01;;;;;;;39.70;18.90;;;;;;;6.59;63.28;99840.88;221421;1246;140648;-64
2022/10/13 05:10:06;;;;;;;35.50;18.70;;;;;;;6.59;63.50;99842.98;221411;1246;140477;-63
2022/10/13 05:15:11;;;;;;;;;;;;;;;6.60;63.42;99842.44;221373;1247;140713;-63
2022/10/13 05:20:16;;;;;;;31.40;17.10;;;;;;;6.55;63.12;99839.95;221464;1249;126078;-63
2022/10/13 05:25:20;;;;;;;41.20;17.90;;;;;;;6.48;62.97;99842.48;221442;1246;140823;-65
2022/10/13 05:30:23;;;;;;;42.80;18.30;;;;;;;6.43;63.30;99846.33;221402;1247;140857;-67
2022/10/13 05:35:27;;;;;;;30.30;17.70;;;;;;;6.41;63.20;99848.51;221437;1246;139683;-67
2022/10/13 05:40:32;;;;;;;32.00;17.00;;;;;;;6.39;63.13;99848.91;221548;1246;140118;-67
2022/10/13 05:45:37;;;;;;;32.70;17.00;;;;;;;6.39;63.30;99855.43;221226;1244;141143;-68
2022/10/13 05:50:42;;;;;;;;;;;;;;;6.41;63.46;99854.13;221427;1246;140260;-65
2022/10/13 05:55:46;;;;;;;33.40;18.20;;;;;;;6.45;63.65;99855.44;221425;1246;128074;-63
2022/10/13 06:00:53;;;;;;;50.60;19.00;;;;;;;6.57;63.63;99848.89;221392;1246;140367;-63
2022/10/13 06:05:57;;;;;;;39.10;19.60;;;;;;;6.67;63.65;99853.67;221433;1247;139272;-64
2022/10/13 06:11:02;;;;;;;39.80;18.90;;;;;;;6.76;63.93;99851.76;221443;1246;140396;-66
2022/10/13 06:16:06;;;;;;;38.10;19.40;;;;;;;6.87;64.19;99854.39;221516;1246;140640;-64
2022/10/13 06:21:09;;;;;;;34.40;19.00;;;;;;;6.96;64.18;99857.29;221419;1244;141227;-64
2022/10/13 06:26:13;;;;;;;36.20;19.40;;;;;;;7.05;64.39;99855.38;221465;1246;140935;-64
2022/10/13 06:31:17;;;;;;;32.60;18.00;;;;;;;7.15;64.48;99852.05;221476;1246;140062;-64
2022/10/13 06:36:21;;;;;;;30.00;18.00;;;;;;;7.23;64.45;99849.25;221464;1246;140276;-66
2022/10/13 06:41:28;;;;;;;31.70;20.00;;;;;;;7.33;64.63;99849.80;221515;1246;141004;-68
2022/10/13 06:46:33;;;;;;;35.50;19.40;;;;;;;7.44;64.69;99847.30;221406;1246;140759;-66
2022/10/13 06:51:38;;;;;;;35.80;20.00;;;;;;;7.58;64.69;99845.88;221387;1246;140900;-65
2022/10/13 06:56:42;;;;;;;40.80;20.80;;;;;;;7.77;64.85;99840.75;221332;1246;141463;-65
2022/10/13 07:01:48;;;;;;;37.30;19.40;;;;;;;7.93;64.84;99832.54;221417;1247;139552;-64
2022/10/13 07:06:54;;;;;;;34.80;19.90;;;;;;;8.08;65.11;99834.46;221315;1246;140122;-64
2022/10/13 07:11:58;;;;;;;35.60;19.10;;;;;;;8.20;64.89;99831.87;221333;1246;141624;-65
2022/10/13 07:17:03;;;;;;;33.30;18.90;;;;;;;8.32;64.90;99829.44;221248;1246;152443;-65
2022/10/13 07:22:06;;;;;;;30.00;18.70;;;;;;;8.48;65.06;99834.13;221488;1246;140233;-65
2022/10/13 07:27:10;;;;;;;35.50;17.90;;;;;;;8.62;65.14;99836.21;221292;1247;141148;-64
2022/10/13 07:32:16;;;;;;;32.90;18.90;;;;;;;8.74;64.96;99833.41;221338;1247;140645;-62
2022/10/13 07:37:20;;;;;;;40.10;18.10;;;;;;;8.85;65.28;99828.89;221335;1246;140395;-64
2022/10/13 07:42:26;;;;;;;31.00;18.00;;;;;;;8.98;64.65;99824.10;221456;1247;139852;-67
2022/10/13 07:47:30;;;;;;;31.80;17.30;;;;;;;9.13;65.16;99817.57;221254;1249;141633;-66
2022/10/13 07:52:35;;;;;;;32.30;17.10;;;;;;;9.33;65.04;99812.09;221355;1250;140684;-66
2022/10/13 07:57:39;;;;;;;29.20;15.90;;;;;;;9.48;64.49;99803.45;221371;1246;141079;-66
2022/10/13 08:02:42;;;;;;;36.90;17.40;;;;;;;9.61;64.54;99797.23;221354;1240;143045;-67
2022/10/13 08:07:47;;;;;;;109.70;68.90;;;;;;;9.74;64.57;99789.16;221385;1247;142057;-67
2022/10/13 08:12:50;;;;;;;44.80;26.10;;;;;;;9.93;64.57;99787.39;221382;1240;141058;-68
2022/10/13 08:17:54;;;;;;;20.90;14.90;;;;;;;10.07;64.14;99787.23;221674;1246;140008;-66
2022/10/13 08:23:00;;;;;;;29.80;15.60;;;;;;;10.19;63.92;99777.82;221195;1239;141220;-65
2022/10/13 08:28:06;;;;;;;34.90;17.10;;;;;;;10.29;63.66;99769.71;221344;1246;141497;-67
2022/10/13 08:33:13;;;;;;;28.10;16.40;;;;;;;10.39;63.74;99771.69;221352;1246;140598;-65
2022/10/13 08:38:17;;;;;;;24.90;15.70;;;;;;;10.52;63.73;99768.77;221382;1246;141451;-66
2022/10/13 08:43:23;;;;;;;28.00;15.30;;;;;;;10.64;63.33;99768.67;221333;1246;140598;-64
2022/10/13 08:48:30;;;;;;;;;;;;;;;10.79;63.20;99764.70;221155;1246;140825;-67
2022/10/13 08:53:41;;;;;;;22.70;14.70;;;;;;;10.94;63.34;99754.74;221466;1246;126965;-70
2022/10/13 08:58:47;;;;;;;23.30;14.80;;;;;;;11.07;63.07;99750.66;221360;1247;141169;-65
2022/10/13 09:03:51;;;;;;;;;;;;;;;11.20;63.11;99748.91;221370;1246;141476;-66
2022/10/13 09:09:01;;;;;;;29.60;14.30;;;;;;;11.34;62.90;99744.77;221481;1246;128305;-64
2022/10/13 09:14:30;;;;;;;23.70;13.60;;;;;;;11.55;63.00;99744.71;221517;1246;140772;-67
2022/10/13 09:19:35;;;;;;;22.40;13.40;;;;;;;11.78;62.61;99737.60;221349;1246;140420;-64
2022/10/13 09:24:41;;;;;;;22.30;12.50;;;;;;;11.95;62.58;99738.97;221593;1246;141212;-64
2022/10/13 09:29:45;;;;;;;21.80;12.40;;;;;;;12.09;62.15;99736.05;221411;1240;140031;-65
2022/10/13 09:34:51;;;;;;;25.20;12.60;;;;;;;12.24;62.03;99731.30;221364;1246;141031;-63
2022/10/13 09:40:19;;;;;;;20.00;11.20;;;;;;;12.38;61.71;99724.59;221411;1246;142484;-64
2022/10/13 09:45:26;;;;;;;22.00;10.60;;;;;;;12.51;61.26;99718.98;221436;1243;141283;-67
2022/10/13 09:50:33;;;;;;;26.50;11.90;;;;;;;12.66;61.04;99718.50;221511;1246;141088;-67
2022/10/13 09:55:37;;;;;;;19.20;10.30;;;;;;;12.78;60.80;99717.25;221588;1246;140542;-67
2022/10/13 10:00:41;;;;;;;23.20;11.90;;;;;;;12.91;60.50;99709.48;221473;1246;140266;-68
2022/10/13 10:05:48;;;;;;;26.50;12.50;;;;;;;13.07;60.31;99701.74;221418;1247;140314;-68
2022/10/13 10:10:54;;;;;;;30.10;14.70;;;;;;;13.19;59.81;99696.21;221471;1246;140990;-68
2022/10/13 10:16:19;;;;;;;31.80;13.80;;;;;;;13.35;59.66;99689.89;221553;1246;141166;-67
2022/10/13 10:21:48;;;;;;;37.10;12.80;;;;;;;13.61;59.66;99678.23;221422;1246;141644;-67
2022/10/13 10:26:53;;;;;;;27.40;14.20;;;;;;;13.84;59.53;99669.61;221471;1247;140770;-67
2022/10/13 10:32:11;;;;;;;27.90;12.90;;;;;;;14.02;58.81;99666.86;221486;1240;141431;-68
2022/10/13 10:37:34;;;;;;;31.30;13.30;;;;;;;14.15;58.76;99657.75;221358;1246;139466;-68
2022/10/13 10:42:51;;;;;;;28.40;11.90;;;;;;;14.25;58.46;99655.52;221420;1246;141140;-66
2022/10/13 10:48:21;;;;;;;418.50;274.70;;;;;;;14.33;58.07;99651.52;221411;1247;141533;-66
2022/10/13 10:54:10;;;;;;;29.30;16.60;;;;;;;14.45;57.98;99651.06;221335;1233;140084;-67
2022/10/13 10:59:15;;;;;;;27.00;10.90;;;;;;;14.59;57.60;99643.19;221272;1246;140802;-67
2022/10/13 11:04:21;;;;;;;27.60;11.20;;;;;;;14.72;57.37;99638.54;221374;1247;141052;-67
2022/10/13 11:09:46;;;;;;;19.90;11.60;;;;;;;14.82;57.17;99633.20;221156;1239;140283;-67
2022/10/13 11:15:30;;;;;;;27.00;12.10;;;;;;;14.93;57.02;99619.60;221035;1240;140938;-67
2022/10/13 11:20:34;;;;;;;21.70;10.20;;;;;;;15.01;56.80;99616.32;221297;1249;141740;-67
2022/10/13 11:25:47;;;;;;;20.30;9.70;;;;;;;15.07;56.17;99612.48;221339;1246;140237;-67
2022/10/13 11:30:54;;;;;;;20.20;10.80;;;;;;;15.12;56.39;99600.53;221396;1240;140435;-68
2022/10/13 11:36:35;;;;;;;23.10;11.40;;;;;;;15.24;56.33;99597.84;221370;1247;141379;-68
2022/10/13 11:42:12;;;;;;;30.00;10.00;;;;;;;15.38;56.37;99588.46;221331;1244;140249;-67
2022/10/13 11:48:11;;;;;;;19.50;9.90;;;;;;;15.52;55.88;99581.72;221018;1247;141983;-68
2022/10/13 11:53:23;;;;;;;20.50;9.30;;;;;;;15.66;55.78;99577.26;220944;1246;140418;-68
2022/10/13 11:58:29;;;;;;;15.10;9.00;;;;;;;15.78;55.43;99571.01;221304;1246;139230;-66
2022/10/13 12:03:37;;;;;;;14.50;8.10;;;;;;;15.85;55.03;99568.17;221293;1253;139583;-63
2022/10/13 12:08:50;;;;;;;14.70;7.70;;;;;;;15.90;54.78;99562.80;221271;1246;139627;-64
2022/10/13 12:13:55;;;;;;;11.10;7.60;;;;;;;15.92;54.61;99559.02;221410;1249;139626;-65
2022/10/13 12:19:21;;;;;;;13.60;6.90;;;;;;;15.95;54.49;99554.88;221376;1240;140525;-66
2022/10/13 12:24:28;;;;;;;15.50;8.10;;;;;;;15.98;54.25;99552.17;221304;1249;140576;-65
2022/10/13 12:29:32;;;;;;;13.30;7.20;;;;;;;16.01;54.18;99553.16;221339;1240;140111;-64
2022/10/13 12:34:40;;;;;;;11.20;7.40;;;;;;;16.03;54.20;99543.70;221356;1246;140528;-66
2022/10/13 12:39:45;;;;;;;16.70;7.60;;;;;;;16.06;54.16;99529.84;221376;1247;140855;-65
2022/10/13 12:44:48;;;;;;;20.90;15.10;;;;;;;16.15;54.11;99523.64;221309;1247;139452;-65
2022/10/13 12:50:28;;;;;;;30.60;20.20;;;;;;;16.48;56.44;99521.44;221398;1247;141993;-65
2022/10/13 12:55:33;;;;;;;29.80;17.90;;;;;;;17.14;57.23;99511.30;221381;1246;140542;-63
2022/10/13 13:00:36;;;;;;;20.80;11.50;;;;;;;17.66;56.86;99510.42;221480;1246;139383;-63
2022/10/13 13:05:44;;;;;;;;;;;;;;;18.05;55.91;99508.94;221328;1247;141211;-65
2022/10/13 13:11:00;;;;;;;16.60;9.50;;;;;;;18.34;55.30;99510.06;221401;1247;126470;-64
2022/10/13 13:16:19;;;;;;;17.40;9.10;;;;;;;18.50;54.82;99499.87;221427;1246;139527;-65
2022/10/13 13:21:23;;;;;;;15.00;7.20;;;;;;;18.57;54.15;99493.45;221347;1249;140612;-67
2022/10/13 13:26:27;;;;;;;13.00;7.40;;;;;;;18.58;53.68;99490.15;221558;1246;140518;-66
2022/10/13 13:31:36;;;;;;;15.00;6.70;;;;;;;18.55;53.53;99487.50;221442;1246;139120;-66
2022/10/13 13:36:42;;;;;;;12.70;6.40;;;;;;;18.59;53.33;99481.45;221341;1253;139439;-65
2022/10/13 13:41:46;;;;;;;12.40;6.60;;;;;;;18.57;52.88;99479.30;221319;1246;140767;-66
2022/10/13 13:46:50;;;;;;;11.00;5.20;;;;;;;18.57;52.94;99483.20;221415;1247;140020;-66
2022/10/13 13:51:53;;;;;;;10.50;5.90;;;;;;;18.59;52.47;99481.59;221202;1248;139583;-66
2022/10/13 13:56:58;;;;;;;7.90;5.10;;;;;;;18.59;52.36;99476.77;221341;1246;140776;-65
2022/10/13 14:02:04;;;;;;;12.50;5.40;;;;;;;18.58;52.17;99473.41;221377;1244;139304;-65
2022/10/13 14:07:09;;;;;;;8.80;5.50;;;;;;;18.54;51.94;99470.89;221323;1247;143832;-65
2022/10/13 14:12:15;;;;;;;13.30;5.20;;;;;;;18.54;51.88;99472.36;221270;1247;141226;-65
2022/10/13 14:17:19;;;;;;;15.40;5.90;;;;;;;18.53;51.68;99473.19;221302;1247;139197;-64
2022/10/13 14:22:23;;;;;;;18.70;6.40;;;;;;;18.57;51.97;99472.09;221395;1246;140481;-63
2022/10/13 14:27:27;;;;;;;15.60;5.80;;;;;;;18.58;51.93;99472.50;221288;1248;139750;-64
2022/10/13 14:32:34;;;;;;;16.30;5.70;;;;;;;18.56;51.87;99471.41;221485;1253;140124;-65
2022/10/13 14:37:38;;;;;;;7.90;5.00;;;;;;;18.53;51.89;99470.80;221392;1247;141106;-65
2022/10/13 14:42:43;;;;;;;12.40;5.70;;;;;;;18.53;51.82;99469.44;221287;1247;138995;-66
2022/10/13 14:47:52;;;;;;;14.70;5.80;;;;;;;18.48;51.53;99469.66;221134;1254;140514;-66
2022/10/13 14:52:56;;;;;;;9.40;5.60;;;;;;;18.28;50.56;99465.46;221182;1254;140510;-66
2022/10/13 14:58:01;;;;;;;;;;;;;;;17.94;50.15;99461.94;221203;1243;140689;-66
2022/10/13 15:03:06;;;;;;;17.70;5.90;;;;;;;17.61;50.08;99466.00;221335;1246;125413;-69
2022/10/13 15:08:09;;;;;;;159.30;101.10;;;;;;;17.45;51.26;99465.19;221305;1240;140717;-68
2022/10/13 15:13:13;;;;;;;21.70;11.70;;;;;;;17.45;51.24;99467.89;221336;1246;141126;-69
2022/10/13 15:18:18;;;;;;;53.50;9.10;;;;;;;17.19;50.89;99464.64;221276;1247;139501;-68
2022/10/13 15:23:22;;;;;;;20.90;7.60;;;;;;;16.91;51.12;99465.52;221306;1246;139768;-67
2022/10/13 15:28:37;;;;;;;19.20;7.50;;;;;;;16.66;51.43;99460.86;221315;1247;139488;-67
2022/10/13 15:33:48;;;;;;;16.80;6.50;;;;;;;16.45;51.83;99461.69;221161;1253;139017;-67
2022/10/13 15:38:51;;;;;;;13.70;6.60;;;;;;;16.26;51.92;99459.95;221228;1246;139761;-68
2022/10/13 15:43:57;;;;;;;11.90;7.00;;;;;;;16.06;52.34;99457.37;220999;1247;139583;-67
2022/10/13 15:49:01;;;;;;;16.30;7.30;;;;;;;15.88;52.63;99458.41;221135;1246;140120;-67
2022/10/13 15:54:05;;;;;;;17.40;7.90;;;;;;;15.72;52.62;99460.73;220985;1246;141115;-67
2022/10/13 15:59:09;;;;;;;16.90;8.80;;;;;;;15.58;52.90;99459.28;221258;1250;141330;-67
2022/10/13 16:04:12;;;;;;;38.20;20.70;;;;;;;15.44;53.01;99459.06;221319;1246;139347;-68
2022/10/13 16:09:17;;;;;;;14.20;9.30;;;;;;;15.30;53.20;99457.96;221237;1251;141300;-68
2022/10/13 16:14:20;;;;;;;19.60;8.50;;;;;;;15.16;53.70;99458.88;221325;1241;140040;-68
2022/10/13 16:19:24;;;;;;;15.80;8.30;;;;;;;15.04;54.08;99464.03;221193;1253;140877;-68
2022/10/13 16:24:29;;;;;;;21.40;10.70;;;;;;;14.95;54.35;99468.28;221233;1246;139409;-67
2022/10/13 16:29:34;;;;;;;21.40;10.40;;;;;;;14.87;54.61;99463.81;220979;1247;139275;-68
2022/10/13 16:34:38;;;;;;;23.10;9.20;;;;;;;14.80;54.99;99455.21;221280;1252;140437;-67
2022/10/13 16:39:42;;;;;;;20.60;11.00;;;;;;;14.72;55.32;99458.16;221312;1252;139285;-68
2022/10/13 16:44:53;;;;;;;23.60;10.60;;;;;;;14.63;55.41;99459.12;221314;1252;140873;-68
2022/10/13 16:50:08;;;;;;;26.90;11.20;;;;;;;14.53;55.54;99454.52;221270;1247;140830;-67
2022/10/13 16:55:14;;;;;;;20.40;11.80;;;;;;;14.43;55.65;99456.05;221439;1250;140100;-67
2022/10/13 17:00:17;;;;;;;;;;;;;;;14.33;55.64;99456.39;221337;1251;143436;-68
2022/10/13 17:05:21;;;;;;;18.00;10.00;;;;;;;14.22;55.76;99458.46;221425;1247;125314;-68
2022/10/13 17:10:27;;;;;;;22.00;11.40;;;;;;;14.10;56.03;99460.17;221267;1252;139872;-67
2022/10/13 17:15:35;;;;;;;24.30;11.10;;;;;;;14.01;56.13;99457.96;221294;1253;139545;-69
2022/10/13 17:20:40;;;;;;;18.80;11.50;;;;;;;13.92;56.27;99456.11;221386;1247;139770;-67
2022/10/13 17:25:44;;;;;;;22.70;12.00;;;;;;;13.84;56.45;99458.46;221258;1253;139885;-66
2022/10/13 17:31:02;;;;;;;23.20;12.30;;;;;;;13.77;56.71;99455.02;221332;1253;139973;-68
2022/10/13 17:36:36;;;;;;;21.40;12.10;;;;;;;13.70;56.69;99450.14;221279;1252;139868;-69
2022/10/13 17:41:44;;;;;;;24.60;12.90;;;;;;;13.59;56.77;99448.71;221203;1253;140264;-68
2022/10/13 17:46:48;;;;;;;24.20;13.50;;;;;;;13.51;57.00;99449.61;221203;1253;140135;-68
2022/10/13 17:51:53;;;;;;;23.00;13.80;;;;;;;13.43;57.13;99446.05;221174;1251;139536;-68
2022/10/13 17:56:59;;;;;;;22.10;13.70;;;;;;;13.38;57.44;99445.54;221251;1253;140370;-68
2022/10/13 18:02:03;;;;;;;23.50;13.70;;;;;;;13.33;57.45;99447.64;221319;1250;139997;-67
2022/10/13 18:07:07;;;;;;;26.70;14.80;;;;;;;13.29;57.62;99447.16;221151;1247;140593;-68
2022/10/13 18:12:11;;;;;;;22.60;14.40;;;;;;;13.29;57.83;99446.70;221195;1246;141264;-67
2022/10/13 18:17:15;;;;;;;25.80;14.60;;;;;;;13.28;58.06;99448.52;221344;1253;140415;-67
2022/10/13 18:22:20;;;;;;;27.00;16.10;;;;;;;13.29;58.14;99448.79;221202;1246;141390;-67
2022/10/13 18:27:26;;;;;;;21.90;14.70;;;;;;;13.34;58.13;99442.73;221363;1246;139991;-67
2022/10/13 18:32:29;;;;;;;247.50;153.50;;;;;;;13.43;58.77;99439.48;221412;1251;140057;-66
2022/10/13 18:37:33;;;;;;;27.10;18.00;;;;;;;13.51;58.55;99437.85;221043;1247;140143;-67
2022/10/13 18:42:37;;;;;;;26.30;15.40;;;;;;;13.55;58.73;99431.69;221230;1246;140156;-66
2022/10/13 18:47:50;;;;;;;30.90;16.30;;;;;;;13.54;58.37;99431.45;221112;1246;140460;-66
2022/10/13 18:52:55;;;;;;;36.70;18.90;;;;;;;13.45;58.42;99432.89;221080;1253;139376;-67
2022/10/13 18:57:59;;;;;;;28.10;18.30;;;;;;;13.38;58.08;99431.98;221104;1247;139583;-67
2022/10/13 19:03:03;;;;;;;30.20;17.90;;;;;;;13.29;58.41;99431.48;221286;1247;139412;-68
2022/10/13 19:08:08;;;;;;;33.80;18.90;;;;;;;13.19;58.36;99434.43;221307;1252;139917;-68
2022/10/13 19:13:12;;;;;;;32.80;12.00;;;;;;;13.10;58.24;99432.54;221114;1246;141790;-68
2022/10/13 19:18:16;;;;;;;34.30;19.10;;;;;;;13.01;58.36;99428.70;221222;1251;141145;-67
2022/10/13 19:23:21;;;;;;;96.50;62.30;;;;;;;12.92;58.59;99429.48;221104;1253;139704;-67
2022/10/13 19:28:25;;;;;;;37.80;25.40;;;;;;;12.87;58.61;99427.33;221319;1247;140054;-66
2022/10/13 19:33:30;;;;;;;30.80;18.60;;;;;;;12.81;58.95;99422.85;221227;1247;139661;-68
2022/10/13 19:38:34;;;;;;;33.60;19.50;;;;;;;12.75;58.86;99424.16;221355;1253;139365;-67
2022/10/13 19:43:39;;;;;;;32.90;19.60;;;;;;;12.65;59.04;99418.73;221282;1246;140375;-69
2022/10/13 19:48:44;;;;;;;33.70;18.70;;;;;;;12.56;59.19;99417.89;221211;1253;140314;-67
2022/10/13 19:53:47;;;;;;;30.10;17.90;;;;;;;12.47;59.07;99421.16;221199;1246;140282;-67
2022/10/13 19:58:53;;;;;;;34.20;19.20;;;;;;;12.42;59.47;99425.36;221365;1247;139713;-66
2022/10/13 20:03:57;;;;;;;29.50;17.80;;;;;;;12.41;59.56;99425.60;221332;1246;140908;-67
2022/10/13 20:09:02;;;;;;;30.60;19.50;;;;;;;12.38;59.73;99425.83;221270;1253;140303;-69
2022/10/13 20:14:06;;;;;;;29.60;19.20;;;;;;;12.33;59.73;99426.83;221516;1246;139452;-68
2022/10/13 20:19:12;;;;;;;27.20;17.80;;;;;;;12.28;59.76;99426.64;221316;1252;140271;-68
2022/10/13 20:24:20;;;;;;;32.90;19.80;;;;;;;12.20;59.85;99425.16;221223;1249;139887;-63
2022/10/13 20:29:24;;;;;;;31.50;19.90;;;;;;;12.14;59.91;99421.27;221328;1246;139694;-71
2022/10/13 20:34:27;;;;;;;29.20;18.90;;;;;;;12.06;60.02;99418.05;221388;1248;141000;-67
2022/10/13 20:39:31;;;;;;;37.60;19.90;;;;;;;11.98;60.24;99414.96;221347;1251;139698;-67
2022/10/13 20:44:35;;;;;;;38.50;20.70;;;;;;;11.91;60.31;99411.67;221424;1246;140194;-68
2022/10/13 20:49:38;;;;;;;43.10;20.50;;;;;;;11.81;60.66;99407.31;221123;1251;140151;-67
2022/10/13 20:54:43;;;;;;;36.40;21.40;;;;;;;11.70;60.26;99407.42;221270;1247;140675;-67
2022/10/13 20:59:47;;;;;;;37.60;22.10;;;;;;;11.60;60.40;99403.58;221335;1252;139564;-67
2022/10/13 21:04:52;;;;;;;42.50;23.40;;;;;;;11.54;60.54;99399.30;221331;1247;140318;-69
2022/10/13 21:09:56;;;;;;;42.10;23.10;;;;;;;11.51;60.58;99401.64;221309;1249;140029;-68
2022/10/13 21:15:03;;;;;;;40.60;23.00;;;;;;;11.46;60.43;99404.80;221245;1246;223285;-70
2022/10/13 21:20:09;;;;;;;39.50;23.30;;;;;;;11.37;60.60;99407.29;221462;1246;140441;-68
2022/10/13 21:25:14;;;;;;;37.30;23.50;;;;;;;11.28;60.75;99404.96;221259;1251;140273;-68
2022/10/13 21:30:19;;;;;;;41.10;23.20;;;;;;;11.21;60.68;99404.67;221379;1247;140790;-68
2022/10/13 21:35:24;;;;;;;40.90;23.70;;;;;;;11.15;61.00;99399.55;221220;1247;139464;-66
2022/10/13 21:40:28;;;;;;;43.60;24.10;;;;;;;11.08;60.84;99406.16;221361;1246;140143;-67
2022/10/13 21:45:33;;;;;;;39.90;25.30;;;;;;;11.02;61.16;99406.33;221261;1246;139557;-67
2022/10/13 21:50:38;;;;;;;41.70;24.40;;;;;;;10.94;61.13;99401.11;221418;1247;140957;-68
2022/10/13 21:55:42;;;;;;;38.40;23.80;;;;;;;10.85;61.27;99405.48;221254;1247;140603;-68
2022/10/13 22:00:47;;;;;;;40.40;23.50;;;;;;;10.77;61.35;99404.00;221353;1246;140190;-68
2022/10/13 22:05:52;;;;;;;41.40;25.30;;;;;;;10.74;61.43;99406.30;221347;1246;140923;-67
2022/10/13 22:10:56;;;;;;;40.20;23.60;;;;;;;10.72;61.54;99405.00;221376;1246;141061;-68
2022/10/13 22:16:08;;;;;;;40.90;24.30;;;;;;;10.71;61.60;99405.63;221329;1250;140463;-67
2022/10/13 22:21:18;;;;;;;43.00;25.40;;;;;;;10.67;61.42;99404.20;221340;1250;139606;-68
2022/10/13 22:26:23;;;;;;;46.30;25.90;;;;;;;10.63;61.81;99406.59;221391;1242;139704;-66
2022/10/13 22:31:31;;;;;;;41.50;26.20;;;;;;;10.57;61.75;99404.27;221469;1247;139818;-68
2022/10/13 22:36:42;;;;;;;44.40;24.50;;;;;;;10.50;61.49;99408.02;221317;1250;140516;-68
2022/10/13 22:41:48;;;;;;;41.30;25.00;;;;;;;10.46;61.90;99409.11;221368;1246;139705;-68
2022/10/13 22:46:52;;;;;;;39.50;24.60;;;;;;;10.44;61.97;99407.11;221424;1243;140680;-68
2022/10/13 22:51:56;;;;;;;44.80;25.80;;;;;;;10.43;62.28;99405.58;221416;1246;139986;-69
2022/10/13 22:56:59;;;;;;;42.40;25.80;;;;;;;10.47;62.32;99408.93;221448;1246;140124;-67
2022/10/13 23:02:03;;;;;;;41.20;24.80;;;;;;;10.50;62.43;99409.77;221503;1247;139995;-66
2022/10/13 23:07:12;;;;;;;42.20;24.70;;;;;;;10.57;62.43;99408.33;221434;1246;140013;-68
2022/10/13 23:12:15;;;;;;;41.10;24.50;;;;;;;10.63;62.59;99408.48;221449;1246;139930;-66